sensor_id;sensor_type;location;lat;lon;timestamp;P1;durP1;ratioP1;P2;durP2;ratioP2
8675;SDS011;4375;52.486;13.424;2024-03-29T00:00:13;13.23;;;1.10;;
8675;SDS011;4375;52.486;13.424;2024-03-29T00:02:39;14.43;;;1.10;;
8675;SDS011;4375;52.486;13.424;2024-03-29T00:05:05;12.83;;;1.07;;
8675;SDS011;4375;52.486;13.424;2024-03-29T00:07:32;15.03;;;1.03;;
8675;SDS011;4375;52.486;13.424;2024-03-29T00:09:57;14.93;;;1.53;;
8675;SDS011;4375;52.486;13.424;2024-03-29T00:12:23;13.50;;;1.20;;
8675;SDS011;4375;52.486;13.424;2024-03-29T00:14:48;15.40;;;1.30;;
8675;SDS011;4375;52.486;13.424;2024-03-29T00:17:16;13.00;;;1.00;;
8675;SDS011;4375;52.486;13.424;2024-03-29T00:19:43;15.97;;;1.43;;
8675;SDS011;4375;52.486;13.424;2024-03-29T00:22:09;12.80;;;0.90;;
8675;SDS011;4375;52.486;13.424;2024-03-29T00:24:34;16.97;;;1.30;;
8675;SDS011;4375;52.486;13.424;2024-03-29T00:26:59;14.57;;;1.40;;
8675;SDS011;4375;52.486;13.424;2024-03-29T00:29:25;13.40;;;1.00;;
8675;SDS011;4375;52.486;13.424;2024-03-29T00:31:51;14.60;;;1.27;;
8675;SDS011;4375;52.486;13.424;2024-03-29T00:34:17;13.53;;;1.10;;
8675;SDS011;4375;52.486;13.424;2024-03-29T00:36:43;14.23;;;1.03;;
8675;SDS011;4375;52.486;13.424;2024-03-29T00:39:08;13.80;;;1.07;;
8675;SDS011;4375;52.486;13.424;2024-03-29T00:41:36;13.93;;;1.10;;
8675;SDS011;4375;52.486;13.424;2024-03-29T00:44:02;15.03;;;1.17;;
8675;SDS011;4375;52.486;13.424;2024-03-29T00:46:28;13.03;;;1.00;;
8675;SDS011;4375;52.486;13.424;2024-03-29T00:48:53;13.50;;;1.07;;
8675;SDS011;4375;52.486;13.424;2024-03-29T00:51:19;13.80;;;1.10;;
8675;SDS011;4375;52.486;13.424;2024-03-29T00:53:45;13.50;;;1.13;;
8675;SDS011;4375;52.486;13.424;2024-03-29T00:56:11;13.03;;;1.10;;
8675;SDS011;4375;52.486;13.424;2024-03-29T00:58:36;14.23;;;1.40;;
8675;SDS011;4375;52.486;13.424;2024-03-29T01:01:02;14.30;;;1.20;;
8675;SDS011;4375;52.486;13.424;2024-03-29T01:03:27;13.90;;;1.17;;
8675;SDS011;4375;52.486;13.424;2024-03-29T01:05:55;13.50;;;1.20;;
8675;SDS011;4375;52.486;13.424;2024-03-29T01:08:20;14.93;;;1.30;;
8675;SDS011;4375;52.486;13.424;2024-03-29T01:10:46;14.73;;;1.43;;
8675;SDS011;4375;52.486;13.424;2024-03-29T01:13:11;14.33;;;1.50;;
8675;SDS011;4375;52.486;13.424;2024-03-29T01:15:37;16.10;;;1.57;;
8675;SDS011;4375;52.486;13.424;2024-03-29T01:18:02;13.97;;;1.50;;
8675;SDS011;4375;52.486;13.424;2024-03-29T01:20:29;16.10;;;1.57;;
8675;SDS011;4375;52.486;13.424;2024-03-29T01:22:55;15.30;;;1.40;;
8675;SDS011;4375;52.486;13.424;2024-03-29T01:25:20;16.43;;;1.40;;
8675;SDS011;4375;52.486;13.424;2024-03-29T01:27:46;16.73;;;1.47;;
8675;SDS011;4375;52.486;13.424;2024-03-29T01:30:12;14.73;;;1.40;;
8675;SDS011;4375;52.486;13.424;2024-03-29T01:32:38;14.17;;;1.43;;
8675;SDS011;4375;52.486;13.424;2024-03-29T01:35:04;14.70;;;1.57;;
8675;SDS011;4375;52.486;13.424;2024-03-29T01:37:29;16.83;;;1.70;;
8675;SDS011;4375;52.486;13.424;2024-03-29T01:39:55;15.63;;;1.50;;
8675;SDS011;4375;52.486;13.424;2024-03-29T01:42:21;17.60;;;1.80;;
8675;SDS011;4375;52.486;13.424;2024-03-29T01:44:47;13.73;;;1.50;;
8675;SDS011;4375;52.486;13.424;2024-03-29T01:47:12;14.17;;;1.90;;
8675;SDS011;4375;52.486;13.424;2024-03-29T01:49:38;14.80;;;2.40;;
8675;SDS011;4375;52.486;13.424;2024-03-29T01:52:04;15.80;;;2.33;;
8675;SDS011;4375;52.486;13.424;2024-03-29T01:54:31;14.80;;;2.27;;
8675;SDS011;4375;52.486;13.424;2024-03-29T01:56:57;17.40;;;3.23;;
8675;SDS011;4375;52.486;13.424;2024-03-29T01:59:22;16.13;;;2.83;;
8675;SDS011;4375;52.486;13.424;2024-03-29T02:01:50;16.70;;;2.70;;
8675;SDS011;4375;52.486;13.424;2024-03-29T02:04:15;17.83;;;2.60;;
8675;SDS011;4375;52.486;13.424;2024-03-29T02:06:41;14.90;;;2.20;;
8675;SDS011;4375;52.486;13.424;2024-03-29T02:09:07;14.27;;;1.80;;
8675;SDS011;4375;52.486;13.424;2024-03-29T02:11:33;14.67;;;1.80;;
8675;SDS011;4375;52.486;13.424;2024-03-29T02:14:00;17.80;;;2.00;;
8675;SDS011;4375;52.486;13.424;2024-03-29T02:16:25;16.73;;;1.90;;
8675;SDS011;4375;52.486;13.424;2024-03-29T02:18:51;15.17;;;1.77;;
8675;SDS011;4375;52.486;13.424;2024-03-29T02:21:17;17.83;;;1.97;;
8675;SDS011;4375;52.486;13.424;2024-03-29T02:23:46;14.90;;;2.00;;
8675;SDS011;4375;52.486;13.424;2024-03-29T02:26:15;15.80;;;1.83;;
8675;SDS011;4375;52.486;13.424;2024-03-29T02:28:41;15.10;;;1.90;;
8675;SDS011;4375;52.486;13.424;2024-03-29T02:31:07;14.50;;;1.73;;
8675;SDS011;4375;52.486;13.424;2024-03-29T02:33:33;14.30;;;1.67;;
8675;SDS011;4375;52.486;13.424;2024-03-29T02:35:58;14.93;;;1.90;;
8675;SDS011;4375;52.486;13.424;2024-03-29T02:38:24;14.07;;;1.83;;
8675;SDS011;4375;52.486;13.424;2024-03-29T02:40:49;15.33;;;2.13;;
8675;SDS011;4375;52.486;13.424;2024-03-29T02:43:15;13.87;;;1.60;;
8675;SDS011;4375;52.486;13.424;2024-03-29T02:45:40;14.90;;;2.27;;
8675;SDS011;4375;52.486;13.424;2024-03-29T02:48:06;20.83;;;2.33;;
8675;SDS011;4375;52.486;13.424;2024-03-29T02:50:32;15.60;;;2.40;;
8675;SDS011;4375;52.486;13.424;2024-03-29T02:52:57;13.97;;;1.70;;
8675;SDS011;4375;52.486;13.424;2024-03-29T02:55:23;16.23;;;2.07;;
8675;SDS011;4375;52.486;13.424;2024-03-29T02:57:48;15.60;;;2.30;;
8675;SDS011;4375;52.486;13.424;2024-03-29T03:00:14;15.37;;;2.50;;
8675;SDS011;4375;52.486;13.424;2024-03-29T03:02:40;15.80;;;2.07;;
8675;SDS011;4375;52.486;13.424;2024-03-29T03:05:06;18.90;;;2.67;;
8675;SDS011;4375;52.486;13.424;2024-03-29T03:07:33;14.80;;;2.07;;
8675;SDS011;4375;52.486;13.424;2024-03-29T03:10:18;14.37;;;2.20;;
8675;SDS011;4375;52.486;13.424;2024-03-29T03:13:02;14.17;;;2.20;;
8675;SDS011;4375;52.486;13.424;2024-03-29T03:15:28;15.37;;;2.50;;
8675;SDS011;4375;52.486;13.424;2024-03-29T03:17:53;15.10;;;2.20;;
8675;SDS011;4375;52.486;13.424;2024-03-29T03:20:19;14.77;;;2.20;;
8675;SDS011;4375;52.486;13.424;2024-03-29T03:22:45;15.83;;;2.70;;
8675;SDS011;4375;52.486;13.424;2024-03-29T03:25:10;14.93;;;2.70;;
8675;SDS011;4375;52.486;13.424;2024-03-29T03:27:36;17.40;;;2.80;;
8675;SDS011;4375;52.486;13.424;2024-03-29T03:30:01;14.87;;;2.20;;
8675;SDS011;4375;52.486;13.424;2024-03-29T03:32:27;15.10;;;2.33;;
8675;SDS011;4375;52.486;13.424;2024-03-29T03:34:52;17.63;;;2.77;;
8675;SDS011;4375;52.486;13.424;2024-03-29T03:37:18;15.03;;;2.27;;
8675;SDS011;4375;52.486;13.424;2024-03-29T03:39:43;14.50;;;2.53;;
8675;SDS011;4375;52.486;13.424;2024-03-29T03:42:09;17.03;;;2.40;;
8675;SDS011;4375;52.486;13.424;2024-03-29T03:44:34;15.03;;;2.40;;
8675;SDS011;4375;52.486;13.424;2024-03-29T03:47:00;14.57;;;2.33;;
8675;SDS011;4375;52.486;13.424;2024-03-29T03:49:26;14.60;;;2.17;;
8675;SDS011;4375;52.486;13.424;2024-03-29T03:51:51;14.90;;;2.33;;
8675;SDS011;4375;52.486;13.424;2024-03-29T03:54:17;15.70;;;2.57;;
8675;SDS011;4375;52.486;13.424;2024-03-29T03:56:42;15.43;;;2.63;;
8675;SDS011;4375;52.486;13.424;2024-03-29T03:59:08;14.60;;;2.40;;
8675;SDS011;4375;52.486;13.424;2024-03-29T04:01:34;14.53;;;2.47;;
8675;SDS011;4375;52.486;13.424;2024-03-29T04:04:00;14.50;;;2.10;;
8675;SDS011;4375;52.486;13.424;2024-03-29T04:06:25;14.80;;;2.50;;
8675;SDS011;4375;52.486;13.424;2024-03-29T04:08:51;14.80;;;2.30;;
8675;SDS011;4375;52.486;13.424;2024-03-29T04:11:16;16.63;;;2.27;;
8675;SDS011;4375;52.486;13.424;2024-03-29T04:13:42;17.20;;;2.67;;
8675;SDS011;4375;52.486;13.424;2024-03-29T04:16:10;14.80;;;2.00;;
8675;SDS011;4375;52.486;13.424;2024-03-29T04:18:35;14.47;;;1.97;;
8675;SDS011;4375;52.486;13.424;2024-03-29T04:21:01;15.67;;;2.23;;
8675;SDS011;4375;52.486;13.424;2024-03-29T04:23:28;15.27;;;2.60;;
8675;SDS011;4375;52.486;13.424;2024-03-29T04:25:54;14.67;;;2.00;;
8675;SDS011;4375;52.486;13.424;2024-03-29T04:28:21;14.60;;;1.90;;
8675;SDS011;4375;52.486;13.424;2024-03-29T04:30:54;15.50;;;2.07;;
8675;SDS011;4375;52.486;13.424;2024-03-29T04:33:19;17.37;;;1.97;;
8675;SDS011;4375;52.486;13.424;2024-03-29T04:35:55;14.43;;;1.63;;
8675;SDS011;4375;52.486;13.424;2024-03-29T04:38:20;14.20;;;1.90;;
8675;SDS011;4375;52.486;13.424;2024-03-29T04:40:46;15.13;;;1.83;;
8675;SDS011;4375;52.486;13.424;2024-03-29T04:43:16;15.37;;;1.93;;
8675;SDS011;4375;52.486;13.424;2024-03-29T04:45:43;14.30;;;2.30;;
8675;SDS011;4375;52.486;13.424;2024-03-29T04:48:09;14.20;;;2.23;;
8675;SDS011;4375;52.486;13.424;2024-03-29T04:50:35;15.27;;;2.00;;
8675;SDS011;4375;52.486;13.424;2024-03-29T04:53:00;18.43;;;2.07;;
8675;SDS011;4375;52.486;13.424;2024-03-29T04:55:26;16.93;;;2.10;;
8675;SDS011;4375;52.486;13.424;2024-03-29T04:57:51;14.53;;;1.93;;
8675;SDS011;4375;52.486;13.424;2024-03-29T05:00:17;13.50;;;1.70;;
8675;SDS011;4375;52.486;13.424;2024-03-29T05:02:43;17.87;;;2.10;;
8675;SDS011;4375;52.486;13.424;2024-03-29T05:05:08;17.50;;;1.97;;
8675;SDS011;4375;52.486;13.424;2024-03-29T05:07:34;13.70;;;1.63;;
8675;SDS011;4375;52.486;13.424;2024-03-29T05:09:59;14.70;;;2.00;;
8675;SDS011;4375;52.486;13.424;2024-03-29T05:12:25;16.30;;;1.90;;
8675;SDS011;4375;52.486;13.424;2024-03-29T05:14:50;15.70;;;1.80;;
8675;SDS011;4375;52.486;13.424;2024-03-29T05:17:16;15.17;;;2.00;;
8675;SDS011;4375;52.486;13.424;2024-03-29T05:19:42;14.50;;;1.80;;
8675;SDS011;4375;52.486;13.424;2024-03-29T05:22:08;16.70;;;1.57;;
8675;SDS011;4375;52.486;13.424;2024-03-29T05:24:34;19.40;;;1.80;;
8675;SDS011;4375;52.486;13.424;2024-03-29T05:27:02;14.07;;;1.83;;
8675;SDS011;4375;52.486;13.424;2024-03-29T05:29:28;16.60;;;1.87;;
8675;SDS011;4375;52.486;13.424;2024-03-29T05:31:53;16.90;;;2.00;;
8675;SDS011;4375;52.486;13.424;2024-03-29T05:34:19;15.50;;;2.10;;
8675;SDS011;4375;52.486;13.424;2024-03-29T05:36:44;14.87;;;1.60;;
8675;SDS011;4375;52.486;13.424;2024-03-29T05:39:10;15.17;;;2.03;;
8675;SDS011;4375;52.486;13.424;2024-03-29T05:41:36;14.50;;;1.80;;
8675;SDS011;4375;52.486;13.424;2024-03-29T05:44:01;16.63;;;1.97;;
8675;SDS011;4375;52.486;13.424;2024-03-29T05:46:29;15.90;;;2.07;;
8675;SDS011;4375;52.486;13.424;2024-03-29T05:48:54;14.10;;;1.60;;
8675;SDS011;4375;52.486;13.424;2024-03-29T05:51:20;15.10;;;2.73;;
8675;SDS011;4375;52.486;13.424;2024-03-29T05:53:45;14.57;;;1.63;;
8675;SDS011;4375;52.486;13.424;2024-03-29T05:56:11;16.33;;;1.70;;
8675;SDS011;4375;52.486;13.424;2024-03-29T05:58:37;13.60;;;1.53;;
8675;SDS011;4375;52.486;13.424;2024-03-29T06:01:02;15.33;;;2.10;;
8675;SDS011;4375;52.486;13.424;2024-03-29T06:03:28;13.50;;;1.30;;
8675;SDS011;4375;52.486;13.424;2024-03-29T06:05:54;16.87;;;1.93;;
8675;SDS011;4375;52.486;13.424;2024-03-29T06:08:20;13.73;;;1.50;;
8675;SDS011;4375;52.486;13.424;2024-03-29T06:10:46;18.67;;;1.73;;
8675;SDS011;4375;52.486;13.424;2024-03-29T06:13:11;14.20;;;1.80;;
8675;SDS011;4375;52.486;13.424;2024-03-29T06:15:54;17.40;;;2.30;;
8675;SDS011;4375;52.486;13.424;2024-03-29T06:18:39;14.60;;;1.70;;
8675;SDS011;4375;52.486;13.424;2024-03-29T06:21:04;14.33;;;1.80;;
8675;SDS011;4375;52.486;13.424;2024-03-29T06:23:30;15.60;;;1.60;;
8675;SDS011;4375;52.486;13.424;2024-03-29T06:25:55;19.07;;;2.27;;
8675;SDS011;4375;52.486;13.424;2024-03-29T06:28:21;15.57;;;1.80;;
8675;SDS011;4375;52.486;13.424;2024-03-29T06:30:46;16.20;;;2.50;;
8675;SDS011;4375;52.486;13.424;2024-03-29T06:33:12;15.80;;;1.63;;
8675;SDS011;4375;52.486;13.424;2024-03-29T06:35:37;14.60;;;2.00;;
8675;SDS011;4375;52.486;13.424;2024-03-29T06:38:03;15.00;;;1.93;;
8675;SDS011;4375;52.486;13.424;2024-03-29T06:40:29;15.77;;;2.50;;
8675;SDS011;4375;52.486;13.424;2024-03-29T06:42:54;16.87;;;1.93;;
8675;SDS011;4375;52.486;13.424;2024-03-29T06:45:23;16.10;;;2.00;;
8675;SDS011;4375;52.486;13.424;2024-03-29T06:47:48;16.17;;;2.63;;
8675;SDS011;4375;52.486;13.424;2024-03-29T06:50:14;20.03;;;1.90;;
8675;SDS011;4375;52.486;13.424;2024-03-29T06:52:39;16.70;;;1.90;;
8675;SDS011;4375;52.486;13.424;2024-03-29T06:55:05;15.63;;;3.23;;
8675;SDS011;4375;52.486;13.424;2024-03-29T06:57:31;16.40;;;2.30;;
8675;SDS011;4375;52.486;13.424;2024-03-29T06:59:57;15.80;;;1.70;;
8675;SDS011;4375;52.486;13.424;2024-03-29T07:02:23;14.53;;;1.70;;
8675;SDS011;4375;52.486;13.424;2024-03-29T07:04:49;14.70;;;1.77;;
8675;SDS011;4375;52.486;13.424;2024-03-29T07:07:14;15.30;;;1.60;;
8675;SDS011;4375;52.486;13.424;2024-03-29T07:09:40;13.97;;;1.53;;
8675;SDS011;4375;52.486;13.424;2024-03-29T07:12:06;15.63;;;1.80;;
8675;SDS011;4375;52.486;13.424;2024-03-29T07:14:31;17.40;;;2.07;;
8675;SDS011;4375;52.486;13.424;2024-03-29T07:16:58;14.97;;;1.80;;
8675;SDS011;4375;52.486;13.424;2024-03-29T07:19:24;13.67;;;1.40;;
8675;SDS011;4375;52.486;13.424;2024-03-29T07:21:49;16.23;;;1.67;;
8675;SDS011;4375;52.486;13.424;2024-03-29T07:24:17;14.70;;;1.90;;
8675;SDS011;4375;52.486;13.424;2024-03-29T07:26:44;15.00;;;1.90;;
8675;SDS011;4375;52.486;13.424;2024-03-29T07:29:10;16.10;;;1.80;;
8675;SDS011;4375;52.486;13.424;2024-03-29T07:31:35;14.60;;;2.03;;
8675;SDS011;4375;52.486;13.424;2024-03-29T07:34:01;18.30;;;1.90;;
8675;SDS011;4375;52.486;13.424;2024-03-29T07:36:27;15.50;;;1.43;;
8675;SDS011;4375;52.486;13.424;2024-03-29T07:38:59;16.67;;;1.90;;
8675;SDS011;4375;52.486;13.424;2024-03-29T07:41:25;24.57;;;2.10;;
8675;SDS011;4375;52.486;13.424;2024-03-29T07:43:52;14.60;;;1.67;;
8675;SDS011;4375;52.486;13.424;2024-03-29T07:46:21;15.03;;;1.70;;
8675;SDS011;4375;52.486;13.424;2024-03-29T07:48:48;13.67;;;1.50;;
8675;SDS011;4375;52.486;13.424;2024-03-29T07:51:16;19.80;;;2.30;;
8675;SDS011;4375;52.486;13.424;2024-03-29T07:53:41;14.90;;;1.60;;
8675;SDS011;4375;52.486;13.424;2024-03-29T07:56:07;14.10;;;1.37;;
8675;SDS011;4375;52.486;13.424;2024-03-29T07:58:32;17.00;;;1.60;;
8675;SDS011;4375;52.486;13.424;2024-03-29T08:00:58;13.57;;;1.40;;
8675;SDS011;4375;52.486;13.424;2024-03-29T08:03:23;15.27;;;1.60;;
8675;SDS011;4375;52.486;13.424;2024-03-29T08:06:02;14.20;;;1.77;;
8675;SDS011;4375;52.486;13.424;2024-03-29T08:08:29;13.77;;;1.30;;
8675;SDS011;4375;52.486;13.424;2024-03-29T08:10:55;13.80;;;1.27;;
8675;SDS011;4375;52.486;13.424;2024-03-29T08:13:21;14.60;;;1.40;;
8675;SDS011;4375;52.486;13.424;2024-03-29T08:15:47;14.53;;;1.20;;
8675;SDS011;4375;52.486;13.424;2024-03-29T08:18:13;14.90;;;1.50;;
8675;SDS011;4375;52.486;13.424;2024-03-29T08:20:39;13.80;;;1.10;;
8675;SDS011;4375;52.486;13.424;2024-03-29T08:23:04;15.20;;;1.63;;
8675;SDS011;4375;52.486;13.424;2024-03-29T08:25:30;18.27;;;1.47;;
8675;SDS011;4375;52.486;13.424;2024-03-29T08:27:56;15.30;;;1.40;;
8675;SDS011;4375;52.486;13.424;2024-03-29T08:30:25;13.97;;;1.30;;
8675;SDS011;4375;52.486;13.424;2024-03-29T08:32:50;14.97;;;1.40;;
8675;SDS011;4375;52.486;13.424;2024-03-29T08:35:17;14.43;;;1.30;;
8675;SDS011;4375;52.486;13.424;2024-03-29T08:37:44;16.60;;;1.73;;
8675;SDS011;4375;52.486;13.424;2024-03-29T08:40:10;13.67;;;1.63;;
8675;SDS011;4375;52.486;13.424;2024-03-29T08:42:36;16.00;;;1.37;;
8675;SDS011;4375;52.486;13.424;2024-03-29T08:45:03;14.90;;;1.70;;
8675;SDS011;4375;52.486;13.424;2024-03-29T08:47:30;15.17;;;1.43;;
8675;SDS011;4375;52.486;13.424;2024-03-29T08:49:56;15.37;;;1.40;;
8675;SDS011;4375;52.486;13.424;2024-03-29T08:52:22;17.60;;;1.80;;
8675;SDS011;4375;52.486;13.424;2024-03-29T08:54:47;16.90;;;2.00;;
8675;SDS011;4375;52.486;13.424;2024-03-29T08:57:13;15.33;;;2.10;;
8675;SDS011;4375;52.486;13.424;2024-03-29T08:59:38;15.70;;;2.07;;
8675;SDS011;4375;52.486;13.424;2024-03-29T09:02:04;20.17;;;2.13;;
8675;SDS011;4375;52.486;13.424;2024-03-29T09:04:32;17.23;;;2.13;;
8675;SDS011;4375;52.486;13.424;2024-03-29T09:07:01;19.30;;;2.17;;
8675;SDS011;4375;52.486;13.424;2024-03-29T09:09:28;14.37;;;1.50;;
8675;SDS011;4375;52.486;13.424;2024-03-29T09:11:54;14.10;;;1.60;;
8675;SDS011;4375;52.486;13.424;2024-03-29T09:14:20;15.63;;;1.70;;
8675;SDS011;4375;52.486;13.424;2024-03-29T09:16:46;16.30;;;1.47;;
8675;SDS011;4375;52.486;13.424;2024-03-29T09:19:14;14.40;;;1.60;;
8675;SDS011;4375;52.486;13.424;2024-03-29T09:21:40;16.33;;;1.70;;
8675;SDS011;4375;52.486;13.424;2024-03-29T09:24:06;13.90;;;1.40;;
8675;SDS011;4375;52.486;13.424;2024-03-29T09:26:32;15.07;;;1.37;;
8675;SDS011;4375;52.486;13.424;2024-03-29T09:28:57;14.87;;;1.37;;
8675;SDS011;4375;52.486;13.424;2024-03-29T09:31:23;15.93;;;1.60;;
8675;SDS011;4375;52.486;13.424;2024-03-29T09:33:49;16.43;;;1.43;;
8675;SDS011;4375;52.486;13.424;2024-03-29T09:36:21;15.10;;;1.60;;
8675;SDS011;4375;52.486;13.424;2024-03-29T09:38:48;14.10;;;1.57;;
8675;SDS011;4375;52.486;13.424;2024-03-29T09:41:15;15.60;;;1.90;;
8675;SDS011;4375;52.486;13.424;2024-03-29T09:43:45;14.57;;;1.57;;
8675;SDS011;4375;52.486;13.424;2024-03-29T09:46:12;14.07;;;1.40;;
8675;SDS011;4375;52.486;13.424;2024-03-29T09:48:42;15.27;;;1.67;;
8675;SDS011;4375;52.486;13.424;2024-03-29T09:51:10;19.27;;;1.97;;
8675;SDS011;4375;52.486;13.424;2024-03-29T09:53:39;15.60;;;1.50;;
8675;SDS011;4375;52.486;13.424;2024-03-29T09:56:09;15.23;;;1.60;;
8675;SDS011;4375;52.486;13.424;2024-03-29T09:58:35;15.20;;;1.60;;
8675;SDS011;4375;52.486;13.424;2024-03-29T10:01:02;14.53;;;1.70;;
8675;SDS011;4375;52.486;13.424;2024-03-29T10:03:29;15.07;;;1.57;;
8675;SDS011;4375;52.486;13.424;2024-03-29T10:05:59;15.83;;;1.67;;
8675;SDS011;4375;52.486;13.424;2024-03-29T10:08:29;13.70;;;1.60;;
8675;SDS011;4375;52.486;13.424;2024-03-29T10:10:56;13.60;;;1.27;;
8675;SDS011;4375;52.486;13.424;2024-03-29T10:13:22;15.20;;;1.63;;
8675;SDS011;4375;52.486;13.424;2024-03-29T10:15:51;15.80;;;2.20;;
8675;SDS011;4375;52.486;13.424;2024-03-29T10:18:20;16.60;;;2.00;;
8675;SDS011;4375;52.486;13.424;2024-03-29T10:20:57;14.10;;;1.60;;
8675;SDS011;4375;52.486;13.424;2024-03-29T10:23:30;14.50;;;1.50;;
8675;SDS011;4375;52.486;13.424;2024-03-29T10:25:56;14.40;;;1.70;;
8675;SDS011;4375;52.486;13.424;2024-03-29T10:28:22;14.00;;;1.50;;
8675;SDS011;4375;52.486;13.424;2024-03-29T10:30:48;14.30;;;1.50;;
8675;SDS011;4375;52.486;13.424;2024-03-29T10:33:15;13.60;;;1.50;;
8675;SDS011;4375;52.486;13.424;2024-03-29T10:35:42;14.60;;;1.63;;
8675;SDS011;4375;52.486;13.424;2024-03-29T10:38:10;14.20;;;1.40;;
8675;SDS011;4375;52.486;13.424;2024-03-29T10:40:37;13.87;;;1.27;;
8675;SDS011;4375;52.486;13.424;2024-03-29T10:43:05;13.33;;;1.20;;
8675;SDS011;4375;52.486;13.424;2024-03-29T10:45:37;14.30;;;1.50;;
8675;SDS011;4375;52.486;13.424;2024-03-29T10:48:04;17.50;;;1.50;;
8675;SDS011;4375;52.486;13.424;2024-03-29T10:50:34;14.80;;;1.40;;
8675;SDS011;4375;52.486;13.424;2024-03-29T10:53:01;18.20;;;1.60;;
8675;SDS011;4375;52.486;13.424;2024-03-29T10:55:30;14.30;;;1.70;;
8675;SDS011;4375;52.486;13.424;2024-03-29T10:57:59;15.10;;;1.63;;
8675;SDS011;4375;52.486;13.424;2024-03-29T11:00:27;14.67;;;1.60;;
8675;SDS011;4375;52.486;13.424;2024-03-29T11:03:12;14.87;;;1.60;;
8675;SDS011;4375;52.486;13.424;2024-03-29T11:05:47;15.07;;;1.67;;
8675;SDS011;4375;52.486;13.424;2024-03-29T11:08:16;15.40;;;1.83;;
8675;SDS011;4375;52.486;13.424;2024-03-29T11:10:47;14.40;;;1.50;;
8675;SDS011;4375;52.486;13.424;2024-03-29T11:13:23;14.23;;;1.60;;
8675;SDS011;4375;52.486;13.424;2024-03-29T11:15:56;15.13;;;1.23;;
8675;SDS011;4375;52.486;13.424;2024-03-29T11:18:21;15.03;;;1.70;;
8675;SDS011;4375;52.486;13.424;2024-03-29T11:20:49;13.80;;;1.30;;
8675;SDS011;4375;52.486;13.424;2024-03-29T11:23:19;14.60;;;1.37;;
8675;SDS011;4375;52.486;13.424;2024-03-29T11:25:48;15.20;;;1.53;;
8675;SDS011;4375;52.486;13.424;2024-03-29T11:28:16;14.80;;;1.47;;
8675;SDS011;4375;52.486;13.424;2024-03-29T11:30:55;13.60;;;1.50;;
8675;SDS011;4375;52.486;13.424;2024-03-29T11:36:14;13.70;;;1.57;;
8675;SDS011;4375;52.486;13.424;2024-03-29T11:38:46;14.30;;;1.40;;
8675;SDS011;4375;52.486;13.424;2024-03-29T11:41:14;14.10;;;1.30;;
8675;SDS011;4375;52.486;13.424;2024-03-29T11:43:42;13.80;;;1.17;;
8675;SDS011;4375;52.486;13.424;2024-03-29T11:46:09;13.87;;;1.63;;
8675;SDS011;4375;52.486;13.424;2024-03-29T11:48:35;14.20;;;1.40;;
8675;SDS011;4375;52.486;13.424;2024-03-29T11:51:05;13.37;;;1.10;;
8675;SDS011;4375;52.486;13.424;2024-03-29T11:53:33;14.10;;;1.30;;
8675;SDS011;4375;52.486;13.424;2024-03-29T11:56:00;14.57;;;1.67;;
8675;SDS011;4375;52.486;13.424;2024-03-29T11:58:27;15.13;;;1.47;;
8675;SDS011;4375;52.486;13.424;2024-03-29T12:00:54;14.57;;;1.30;;
8675;SDS011;4375;52.486;13.424;2024-03-29T12:03:22;15.40;;;1.57;;
8675;SDS011;4375;52.486;13.424;2024-03-29T12:05:50;13.60;;;1.40;;
8675;SDS011;4375;52.486;13.424;2024-03-29T12:08:19;14.13;;;1.50;;
8675;SDS011;4375;52.486;13.424;2024-03-29T12:10:45;14.53;;;1.57;;
8675;SDS011;4375;52.486;13.424;2024-03-29T12:13:10;13.40;;;1.20;;
8675;SDS011;4375;52.486;13.424;2024-03-29T12:15:36;14.17;;;1.67;;
8675;SDS011;4375;52.486;13.424;2024-03-29T12:18:03;14.33;;;1.63;;
8675;SDS011;4375;52.486;13.424;2024-03-29T12:20:31;13.67;;;1.20;;
8675;SDS011;4375;52.486;13.424;2024-03-29T12:23:04;14.90;;;1.90;;
8675;SDS011;4375;52.486;13.424;2024-03-29T12:25:31;14.33;;;1.67;;
8675;SDS011;4375;52.486;13.424;2024-03-29T12:27:58;14.93;;;1.53;;
8675;SDS011;4375;52.486;13.424;2024-03-29T12:30:24;13.87;;;1.40;;
8675;SDS011;4375;52.486;13.424;2024-03-29T12:35:27;20.90;;;1.60;;
8675;SDS011;4375;52.486;13.424;2024-03-29T12:37:53;14.10;;;1.60;;
8675;SDS011;4375;52.486;13.424;2024-03-29T12:40:21;15.10;;;1.50;;
8675;SDS011;4375;52.486;13.424;2024-03-29T12:42:48;14.30;;;1.23;;
8675;SDS011;4375;52.486;13.424;2024-03-29T12:45:15;13.80;;;1.30;;
8675;SDS011;4375;52.486;13.424;2024-03-29T12:47:48;14.27;;;1.77;;
8675;SDS011;4375;52.486;13.424;2024-03-29T12:50:18;17.20;;;1.50;;
8675;SDS011;4375;52.486;13.424;2024-03-29T12:52:47;14.30;;;1.30;;
8675;SDS011;4375;52.486;13.424;2024-03-29T12:55:12;15.53;;;1.50;;
8675;SDS011;4375;52.486;13.424;2024-03-29T12:57:38;14.37;;;1.60;;
8675;SDS011;4375;52.486;13.424;2024-03-29T13:00:07;13.50;;;1.30;;
8675;SDS011;4375;52.486;13.424;2024-03-29T13:02:37;15.53;;;1.97;;
8675;SDS011;4375;52.486;13.424;2024-03-29T13:05:03;15.20;;;1.83;;
8675;SDS011;4375;52.486;13.424;2024-03-29T13:07:29;14.20;;;1.50;;
8675;SDS011;4375;52.486;13.424;2024-03-29T13:10:01;14.10;;;1.40;;
8675;SDS011;4375;52.486;13.424;2024-03-29T13:12:38;15.17;;;1.50;;
8675;SDS011;4375;52.486;13.424;2024-03-29T13:15:14;14.67;;;1.63;;
8675;SDS011;4375;52.486;13.424;2024-03-29T13:17:41;14.60;;;1.77;;
8675;SDS011;4375;52.486;13.424;2024-03-29T13:20:06;15.90;;;1.53;;
8675;SDS011;4375;52.486;13.424;2024-03-29T13:22:33;13.57;;;1.30;;
8675;SDS011;4375;52.486;13.424;2024-03-29T13:24:59;13.90;;;1.30;;
8675;SDS011;4375;52.486;13.424;2024-03-29T13:27:24;13.40;;;1.27;;
8675;SDS011;4375;52.486;13.424;2024-03-29T13:29:50;15.17;;;1.70;;
8675;SDS011;4375;52.486;13.424;2024-03-29T13:32:17;15.33;;;1.90;;
8675;SDS011;4375;52.486;13.424;2024-03-29T13:34:43;15.20;;;1.50;;
8675;SDS011;4375;52.486;13.424;2024-03-29T13:37:09;15.57;;;1.43;;
8675;SDS011;4375;52.486;13.424;2024-03-29T13:39:34;14.47;;;1.30;;
8675;SDS011;4375;52.486;13.424;2024-03-29T13:42:00;15.30;;;1.73;;
8675;SDS011;4375;52.486;13.424;2024-03-29T13:44:25;14.00;;;1.27;;
8675;SDS011;4375;52.486;13.424;2024-03-29T13:46:51;14.20;;;1.40;;
8675;SDS011;4375;52.486;13.424;2024-03-29T13:49:17;14.20;;;1.53;;
8675;SDS011;4375;52.486;13.424;2024-03-29T13:51:45;15.53;;;1.30;;
8675;SDS011;4375;52.486;13.424;2024-03-29T13:54:12;17.13;;;1.60;;
8675;SDS011;4375;52.486;13.424;2024-03-29T13:56:38;14.40;;;1.70;;
8675;SDS011;4375;52.486;13.424;2024-03-29T13:59:03;13.73;;;1.40;;
8675;SDS011;4375;52.486;13.424;2024-03-29T14:01:29;14.13;;;1.40;;
8675;SDS011;4375;52.486;13.424;2024-03-29T14:03:54;13.53;;;1.20;;
8675;SDS011;4375;52.486;13.424;2024-03-29T14:06:20;15.60;;;1.30;;
8675;SDS011;4375;52.486;13.424;2024-03-29T14:08:46;15.73;;;1.60;;
8675;SDS011;4375;52.486;13.424;2024-03-29T14:11:12;14.10;;;1.50;;
8675;SDS011;4375;52.486;13.424;2024-03-29T14:13:39;13.63;;;1.23;;
8675;SDS011;4375;52.486;13.424;2024-03-29T14:16:05;13.90;;;1.20;;
8675;SDS011;4375;52.486;13.424;2024-03-29T14:18:30;15.40;;;1.30;;
8675;SDS011;4375;52.486;13.424;2024-03-29T14:20:56;14.50;;;1.70;;
8675;SDS011;4375;52.486;13.424;2024-03-29T14:23:22;15.10;;;1.30;;
8675;SDS011;4375;52.486;13.424;2024-03-29T14:25:50;14.53;;;1.33;;
8675;SDS011;4375;52.486;13.424;2024-03-29T14:28:16;17.37;;;1.27;;
8675;SDS011;4375;52.486;13.424;2024-03-29T14:30:41;14.90;;;1.33;;
8675;SDS011;4375;52.486;13.424;2024-03-29T14:33:07;14.80;;;1.70;;
8675;SDS011;4375;52.486;13.424;2024-03-29T14:35:34;14.27;;;1.30;;
8675;SDS011;4375;52.486;13.424;2024-03-29T14:37:59;13.20;;;1.00;;
8675;SDS011;4375;52.486;13.424;2024-03-29T14:40:25;13.23;;;1.10;;
8675;SDS011;4375;52.486;13.424;2024-03-29T14:42:54;15.57;;;1.30;;
8675;SDS011;4375;52.486;13.424;2024-03-29T14:45:20;14.10;;;1.30;;
8675;SDS011;4375;52.486;13.424;2024-03-29T14:47:45;14.83;;;1.30;;
8675;SDS011;4375;52.486;13.424;2024-03-29T14:50:11;14.60;;;1.40;;